Time;durP1;ratioP1;P1;durP2;ratioP2;P2;SDS_P1;SDS_P2;PMS_P1;PMS_P2;Temp;Humidity;BMP_temperature;BMP_pressure;BME280_temperature;BME280_humidity;BME280_pressure;Samples;Min_cycle;Max_cycle;Signal;HPM_P1;HPM_P2
2022/09/13 00:00:33;;;;;;;0.93;0.80;;;;;;;16.27;78.47;98822.63;5073097;28;20218;-80
2022/09/13 00:03:00;;;;;;;0.60;0.60;;;;;;;16.21;78.67;98825.84;5074470;28;20234;-80
2022/09/13 00:05:28;;;;;;;1.63;0.73;;;;;;;16.12;79.51;98829.34;5077977;28;20219;-80
2022/09/13 00:07:56;;;;;;;0.60;0.60;;;;;;;16.08;79.28;98826.22;5078279;28;20198;-80
2022/09/13 00:10:24;;;;;;;2.10;1.30;;;;;;;16.06;79.62;98831.56;5077672;28;20604;-81
2022/09/13 00:12:52;;;;;;;0.70;0.70;;;;;;;15.95;80.35;98826.66;5077540;28;20218;-80
2022/09/13 00:15:19;;;;;;;0.70;0.70;;;;;;;15.91;80.22;98832.25;5074821;28;20709;-80
2022/09/13 00:17:46;;;;;;;0.97;0.90;;;;;;;15.90;79.80;98831.44;5075391;28;20205;-81
2022/09/13 00:20:14;;;;;;;0.90;0.70;;;;;;;15.85;79.84;98836.22;5074908;28;20224;-81
2022/09/13 00:22:40;;;;;;;1.43;1.10;;;;;;;15.61;80.95;98837.63;5074211;28;20737;-80
2022/09/13 00:25:10;;;;;;;0.93;0.80;;;;;;;15.51;81.29;98826.63;5074153;28;20223;-81
2022/09/13 00:27:37;;;;;;;0.93;0.70;;;;;;;15.54;81.63;98826.31;5073988;28;20776;-80
2022/09/13 00:30:05;;;;;;;0.73;0.73;;;;;;;15.56;81.46;98829.56;5073567;28;20230;-80
2022/09/13 00:32:32;;;;;;;0.83;0.80;;;;;;;15.56;81.51;98829.56;5073283;28;20203;-80
2022/09/13 00:34:59;;;;;;;0.67;0.67;;;;;;;15.53;81.61;98832.44;5073385;28;20195;-81
2022/09/13 00:37:26;;;;;;;1.37;1.23;;;;;;;15.53;81.39;98835.03;5073547;28;20197;-81
2022/09/13 00:39:53;;;;;;;0.93;0.60;;;;;;;15.50;81.62;98837.88;5075825;28;20210;-81
2022/09/13 00:42:25;;;;;;;1.23;0.80;;;;;;;15.44;82.08;98835.88;5076880;28;20233;-81
2022/09/13 00:44:59;;;;;;;0.43;0.43;;;;;;;15.39;82.36;98832.97;5075612;28;20206;-80
2022/09/13 00:47:34;;;;;;;0.73;0.73;;;;;;;15.37;82.31;98824.56;5074693;28;20195;-81
2022/09/13 00:50:06;;;;;;;0.73;0.73;;;;;;;15.35;82.76;98832.44;5075190;28;20701;-80
2022/09/13 00:52:34;;;;;;;0.90;0.70;;;;;;;15.34;82.81;98825.66;5073945;28;20198;-80
2022/09/13 00:55:05;;;;;;;1.13;0.87;;;;;;;15.33;83.11;98828.38;5073199;28;20218;-80
2022/09/13 00:57:35;;;;;;;0.80;0.80;;;;;;;15.25;83.60;98820.59;5073474;28;20200;-80
2022/09/13 01:00:10;;;;;;;0.93;0.60;;;;;;;15.25;83.25;98823.19;5073455;28;20237;-80
2022/09/13 01:02:38;;;;;;;1.20;1.00;;;;;;;15.22;82.98;98820.91;5072612;28;20217;-80
2022/09/13 01:05:06;;;;;;;2.13;1.03;;;;;;;15.23;82.44;98818.16;5072962;28;20576;-81
2022/09/13 01:07:33;;;;;;;0.63;0.60;;;;;;;15.17;83.00;98816.97;5072066;28;20248;-80
2022/09/13 01:10:03;;;;;;;1.13;0.70;;;;;;;15.19;83.01;98813.47;5072829;28;20219;-81
2022/09/13 01:12:35;;;;;;;0.77;0.73;;;;;;;15.20;83.11;98809.91;5072324;28;20191;-81
2022/09/13 01:15:04;;;;;;;0.53;0.50;;;;;;;15.16;83.05;98807.63;5072468;28;20217;-80
2022/09/13 01:17:33;;;;;;;0.67;0.67;;;;;;;15.15;83.55;98800.88;5072586;28;20614;-80
2022/09/13 01:20:02;;;;;;;0.60;0.60;;;;;;;15.09;83.32;98806.59;5075807;28;20226;-80
2022/09/13 01:23:07;;;;;;;1.20;0.80;;;;;;;15.09;83.78;98806.59;5076605;28;20229;-81
2022/09/13 01:26:16;;;;;;;0.53;0.53;;;;;;;15.07;83.63;98807.72;5016878;28;20823;-81
2022/09/13 01:29:20;;;;;;;0.57;0.57;;;;;;;15.01;83.39;98814.25;5074315;28;20198;-81
2022/09/13 01:31:54;;;;;;;0.90;0.50;;;;;;;15.01;83.68;98809.13;5072988;28;20257;-81
2022/09/13 01:34:32;;;;;;;1.60;0.90;;;;;;;15.03;83.20;98814.09;5073232;28;20203;-80
2022/09/13 01:37:23;;;;;;;0.47;0.40;;;;;;;14.99;83.55;98805.06;5072958;28;20614;-80
2022/09/13 01:40:03;;;;;;;0.70;0.70;;;;;;;14.94;83.20;98813.22;5072830;28;20256;-80
2022/09/13 01:42:46;;;;;;;0.67;0.60;;;;;;;14.89;83.51;98813.66;5072371;28;20197;-80
2022/09/13 01:45:23;;;;;;;0.80;0.60;;;;;;;14.86;84.08;98810.53;5071598;28;20232;-80
2022/09/13 01:47:55;;;;;;;0.60;0.60;;;;;;;14.86;83.42;98811.34;5072410;28;20229;-81
2022/09/13 01:50:33;;;;;;;0.50;0.50;;;;;;;14.82;83.67;98809.22;5071778;28;20244;-80
2022/09/13 01:53:03;;;;;;;0.77;0.70;;;;;;;14.78;83.86;98807.91;5071541;28;20202;-81
2022/09/13 01:55:39;;;;;;;0.57;0.57;;;;;;;14.76;83.85;98810.59;5074272;28;20226;-81
2022/09/13 01:58:15;;;;;;;4.37;0.53;;;;;;;14.68;84.16;98808.75;5076244;28;20384;-81
2022/09/13 02:00:48;;;;;;;0.80;0.60;;;;;;;14.52;84.24;98818.88;5074600;28;20230;-81
2022/09/13 02:03:19;;;;;;;0.83;0.70;;;;;;;14.48;84.49;98808.00;5073701;28;20709;-81
2022/09/13 02:05:51;;;;;;;0.50;0.50;;;;;;;14.46;84.84;98807.34;5073293;28;20225;-81
2022/09/13 02:08:26;;;;;;;0.50;0.50;;;;;;;14.38;84.67;98809.81;5072879;28;20205;-81
2022/09/13 02:11:00;;;;;;;0.63;0.60;;;;;;;14.37;84.96;98810.78;5073399;28;20716;-81
2022/09/13 02:13:33;;;;;;;0.50;0.47;;;;;;;14.36;84.91;98809.13;5072570;28;20205;-81
2022/09/13 02:16:06;;;;;;;0.50;0.50;;;;;;;14.32;84.86;98804.44;5072208;28;20229;-80
2022/09/13 02:18:38;;;;;;;0.70;0.70;;;;;;;14.32;85.55;98801.88;5072423;28;20611;-80
2022/09/13 02:21:11;;;;;;;1.13;0.63;;;;;;;14.32;85.45;98807.00;5072416;28;20222;-80
2022/09/13 02:23:42;;;;;;;0.70;0.70;;;;;;;14.26;85.42;98792.94;5071768;28;20244;-80
2022/09/13 02:26:12;;;;;;;0.63;0.63;;;;;;;14.27;85.43;98804.84;5071230;28;20225;-81
2022/09/13 02:28:44;;;;;;;0.80;0.80;;;;;;;14.24;85.25;98798.22;5071448;28;20205;-81
2022/09/13 02:31:13;;;;;;;0.93;0.77;;;;;;;14.19;85.38;98797.81;5071018;28;20219;-81
2022/09/13 02:33:47;;;;;;;0.63;0.63;;;;;;;14.14;86.09;98792.31;5073153;28;20201;-81
2022/09/13 02:36:18;;;;;;;1.00;0.70;;;;;;;14.09;85.92;98797.06;5075812;28;20248;-81
2022/09/13 02:38:54;;;;;;;0.40;0.40;;;;;;;13.89;87.24;98801.44;5078901;28;20570;-81
2022/09/13 02:41:26;;;;;;;0.93;0.83;;;;;;;13.93;87.17;98801.97;5077597;28;20236;-81
2022/09/13 02:43:59;;;;;;;0.77;0.53;;;;;;;13.96;86.67;98801.69;5077211;28;20668;-81
2022/09/13 02:46:41;;;;;;;0.63;0.63;;;;;;;13.94;86.67;98798.47;5076043;28;20232;-81
2022/09/13 02:49:15;;;;;;;1.20;0.87;;;;;;;13.91;86.53;98803.88;5076094;28;20225;-80
2022/09/13 02:51:50;;;;;;;1.30;0.63;;;;;;;13.81;86.61;98798.75;5075788;28;20233;-80
2022/09/13 02:54:25;;;;;;;0.83;0.53;;;;;;;13.78;86.83;98807.53;5075740;28;20211;-81
2022/09/13 02:56:56;;;;;;;0.80;0.70;;;;;;;13.76;86.82;98799.19;5075847;28;20713;-80
2022/09/13 02:59:24;;;;;;;1.17;0.83;;;;;;;13.77;87.28;98808.50;5075247;28;20210;-80
2022/09/13 03:01:58;;;;;;;0.70;0.70;;;;;;;13.76;87.25;98800.94;5074834;28;20245;-80
2022/09/13 03:04:27;;;;;;;0.43;0.43;;;;;;;13.72;87.23;98794.44;5074588;28;20237;-81
2022/09/13 03:06:54;;;;;;;0.43;0.43;;;;;;;13.69;87.65;98795.53;5077078;28;20539;-81
2022/09/13 03:09:21;;;;;;;0.63;0.50;;;;;;;13.68;87.53;98799.06;5079249;28;20202;-81
2022/09/13 03:12:19;;;;;;;0.57;0.57;;;;;;;13.59;88.12;98802.44;5078343;28;20220;-81
2022/09/13 03:14:54;;;;;;;0.93;0.73;;;;;;;13.60;88.17;98811.78;5077843;28;20191;-81
2022/09/13 03:17:37;;;;;;;0.50;0.50;;;;;;;13.58;88.57;98816.22;5076965;28;20212;-81
2022/09/13 03:20:12;;;;;;;0.43;0.43;;;;;;;13.43;89.31;98804.75;5075800;28;20231;-81
2022/09/13 03:23:19;;;;;;;0.40;0.40;;;;;;;13.33;89.56;98815.84;5076592;28;20201;-81
2022/09/13 03:26:23;;;;;;;0.97;0.63;;;;;;;13.36;89.69;98810.44;5075443;28;20219;-80
2022/09/13 03:29:02;;;;;;;0.30;0.30;;;;;;;13.36;89.71;98818.13;5018240;28;20666;-80
2022/09/13 03:31:33;;;;;;;0.43;0.43;;;;;;;13.36;90.21;98807.06;5075233;28;20227;-80
2022/09/13 03:34:08;;;;;;;0.47;0.47;;;;;;;13.36;90.29;98810.44;5074748;28;20247;-81
2022/09/13 03:36:43;;;;;;;0.60;0.60;;;;;;;13.34;90.62;98806.38;5074001;28;20610;-81
2022/09/13 03:39:20;;;;;;;0.93;0.60;;;;;;;13.33;90.75;98800.44;5074377;28;20204;-81
2022/09/13 03:41:53;;;;;;;0.77;0.57;;;;;;;13.31;91.04;98799.75;5078993;28;20228;-81
2022/09/13 03:44:23;;;;;;;0.73;0.50;;;;;;;13.26;91.02;98799.34;5079369;28;20290;-81
2022/09/13 03:46:56;;;;;;;0.83;0.83;;;;;;;13.18;91.16;98803.50;5077601;28;20234;-81
2022/09/13 03:49:25;;;;;;;1.27;0.83;;;;;;;13.02;92.63;98809.16;5076074;28;20204;-81
2022/09/13 03:51:54;;;;;;;0.67;0.60;;;;;;;12.99;92.70;98807.66;5076118;28;20233;-81
2022/09/13 03:54:24;;;;;;;0.50;0.50;;;;;;;13.00;92.88;98808.47;5076261;28;20579;-81
2022/09/13 03:57:07;;;;;;;0.60;0.60;;;;;;;13.06;92.82;98818.19;5074289;28;20312;-81
2022/09/13 03:59:35;;;;;;;0.60;0.60;;;;;;;12.98;93.42;98810.38;5074114;28;20597;-81
2022/09/13 04:02:03;;;;;;;0.97;0.80;;;;;;;13.00;93.95;98808.47;5073659;28;20711;-81
2022/09/13 04:04:29;;;;;;;1.10;0.73;;;;;;;12.96;93.89;98810.50;5073593;28;20300;-81
2022/09/13 04:07:02;;;;;;;0.50;0.50;;;;;;;13.02;93.86;98811.72;5073069;28;20216;-81
2022/09/13 04:09:29;;;;;;;0.63;0.57;;;;;;;12.97;93.70;98801.84;5074408;28;20633;-81
2022/09/13 04:11:56;;;;;;;0.40;0.40;;;;;;;12.94;93.58;98803.88;5075661;28;20250;-81
2022/09/13 04:14:25;;;;;;;0.60;0.60;;;;;;;12.76;94.91;98804.50;5078004;28;20203;-81
2022/09/13 04:16:53;;;;;;;0.60;0.50;;;;;;;12.66;95.53;98796.00;5078429;28;20263;-81
2022/09/13 04:19:20;;;;;;;0.50;0.50;;;;;;;12.74;95.79;98809.00;5076983;28;20210;-81
2022/09/13 04:21:47;;;;;;;0.60;0.47;;;;;;;12.86;94.98;98802.78;5076425;28;20220;-81
2022/09/13 04:24:17;;;;;;;0.43;0.43;;;;;;;12.87;95.09;98812.09;5076455;28;20241;-81
2022/09/13 04:26:44;;;;;;;1.30;0.40;;;;;;;12.83;95.06;98808.19;5075345;28;20238;-81
2022/09/13 04:29:11;;;;;;;0.50;0.50;;;;;;;12.70;95.38;98799.91;5074593;28;20195;-81
2022/09/13 04:31:38;;;;;;;0.63;0.63;;;;;;;12.64;96.19;98803.00;5074535;28;20220;-81
2022/09/13 04:34:05;;;;;;;0.57;0.57;;;;;;;12.59;96.62;98805.13;5074269;28;20198;-81
2022/09/13 04:36:32;;;;;;;0.70;0.57;;;;;;;12.62;97.04;98804.88;5073669;28;20280;-81
2022/09/13 04:38:59;;;;;;;0.40;0.40;;;;;;;12.57;97.47;98810.41;5073939;28;20264;-81
2022/09/13 04:41:28;;;;;;;0.53;0.50;;;;;;;12.58;97.87;98804.34;5073542;28;20214;-81
2022/09/13 04:43:55;;;;;;;0.93;0.50;;;;;;;12.59;98.46;98821.34;5073108;28;20242;-81
2022/09/13 04:46:22;;;;;;;0.27;0.27;;;;;;;12.75;97.97;98826.00;5074787;28;20250;-81
2022/09/13 04:48:49;;;;;;;1.97;0.77;;;;;;;12.88;97.68;98825.75;5073262;28;20200;-83
2022/09/13 04:51:16;;;;;;;0.73;0.60;;;;;;;12.96;97.13;98818.19;5074822;28;20233;-83
2022/09/13 04:53:44;;;;;;;0.53;0.53;;;;;;;13.09;97.03;98828.22;5079341;28;20216;-83
2022/09/13 04:56:12;;;;;;;0.60;0.60;;;;;;;13.20;96.69;98833.22;5078239;28;20219;-83
2022/09/13 04:58:41;;;;;;;0.47;0.47;;;;;;;13.29;96.57;98835.03;5079094;28;20211;-83
2022/09/13 05:01:09;;;;;;;0.70;0.40;;;;;;;13.51;96.28;98841.66;5076763;28;20222;-83
2022/09/13 05:03:37;;;;;;;0.63;0.53;;;;;;;13.76;95.27;98836.91;5076914;28;20207;-83
2022/09/13 05:06:05;;;;;;;0.87;0.70;;;;;;;13.97;94.17;98834.19;5078418;28;20230;-83
2022/09/13 05:08:32;;;;;;;0.70;0.70;;;;;;;14.16;92.48;98833.31;5075785;28;20475;-83
2022/09/13 05:10:59;;;;;;;0.60;0.60;;;;;;;14.35;92.24;98845.31;5074342;28;20236;-83
2022/09/13 05:13:27;;;;;;;0.80;0.80;;;;;;;14.58;91.24;98843.22;5074867;28;20500;-83
2022/09/13 05:15:57;;;;;;;1.77;0.63;;;;;;;14.85;90.74;98844.97;5074317;28;20316;-83
2022/09/13 05:18:26;;;;;;;0.67;0.60;;;;;;;15.11;89.26;98853.63;5076270;28;20197;-83
2022/09/13 05:20:54;;;;;;;1.30;0.90;;;;;;;15.39;88.69;98858.72;5074273;28;20227;-83
2022/09/13 05:23:21;;;;;;;0.93;0.67;;;;;;;15.61;87.11;98860.84;5074868;28;20207;-83
2022/09/13 05:25:53;;;;;;;0.80;0.80;;;;;;;15.90;85.23;98851.25;5074632;28;20234;-83
2022/09/13 05:28:19;;;;;;;1.10;0.70;;;;;;;16.10;85.13;98851.88;5080127;28;20195;-84
2022/09/13 05:30:56;;;;;;;0.77;0.73;;;;;;;16.29;84.20;98849.09;5078781;28;20229;-84
2022/09/13 05:33:24;;;;;;;1.50;0.90;;;;;;;16.48;82.90;98846.28;5076904;28;20587;-84
2022/09/13 05:35:51;;;;;;;0.60;0.60;;;;;;;16.67;81.68;98857.34;5074593;28;20242;-84
2022/09/13 05:38:18;;;;;;;1.00;0.90;;;;;;;16.87;81.43;98856.16;5075409;28;20202;-83
2022/09/13 05:40:45;;;;;;;0.53;0.53;;;;;;;17.16;80.53;98858.31;5075086;28;20257;-83
2022/09/13 05:43:12;;;;;;;1.17;0.73;;;;;;;17.12;78.01;98853.63;5074946;28;20203;-84
2022/09/13 05:45:39;;;;;;;0.80;0.70;;;;;;;17.38;78.73;98859.47;5075991;28;20239;-84
2022/09/13 05:48:08;;;;;;;1.07;0.77;;;;;;;17.56;77.71;98853.34;5076404;28;20213;-83
2022/09/13 05:50:37;;;;;;;0.43;0.43;;;;;;;17.84;78.70;98849.50;5075654;28;20224;-83
2022/09/13 05:53:04;;;;;;;0.77;0.60;;;;;;;18.03;75.41;98863.03;5076184;28;20580;-83
2022/09/13 05:55:32;;;;;;;1.10;1.00;;;;;;;18.20;75.90;98856.88;5073827;28;20234;-83
2022/09/13 05:57:59;;;;;;;0.77;0.73;;;;;;;18.29;74.29;98862.84;5072851;28;20200;-86
2022/09/13 06:00:26;;;;;;;0.70;0.70;;;;;;;18.52;74.70;98870.69;5074520;28;20710;-84
2022/09/13 06:02:53;;;;;;;0.80;0.80;;;;;;;18.72;73.83;98874.50;5077842;28;20208;-84
2022/09/13 06:05:21;;;;;;;0.70;0.70;;;;;;;18.87;71.57;98866.06;5076477;28;20794;-85
2022/09/13 06:07:48;;;;;;;0.77;0.77;;;;;;;18.85;72.92;98862.81;5073823;28;20206;-84
2022/09/13 06:10:15;;;;;;;0.93;0.90;;;;;;;19.06;71.07;98876.00;5074212;28;20226;-82
2022/09/13 06:12:42;;;;;;;2.37;0.77;;;;;;;19.43;71.63;98871.88;5072739;28;20198;-83
2022/09/13 06:15:10;;;;;;;0.80;0.80;;;;;;;19.56;70.18;98874.72;5074203;28;20226;-84
2022/09/13 06:17:37;;;;;;;0.93;0.83;;;;;;;19.62;67.60;98871.41;5075794;28;20213;-84
2022/09/13 06:20:04;;;;;;;1.17;0.83;;;;;;;19.74;67.67;98889.19;5072902;28;20230;-84
2022/09/13 06:22:34;;;;;;;0.70;0.70;;;;;;;20.02;68.44;98892.03;5074781;28;20210;-83
2022/09/13 06:25:01;;;;;;;1.40;0.77;;;;;;;20.05;66.79;98892.50;5073023;28;20298;-83
2022/09/13 06:27:30;;;;;;;1.30;1.00;;;;;;;20.10;65.31;98892.78;5072667;28;20228;-83
2022/09/13 06:29:57;;;;;;;1.33;0.90;;;;;;;20.29;64.27;98898.44;5072862;28;20265;-83
2022/09/13 06:32:24;;;;;;;0.97;0.80;;;;;;;20.19;64.20;98895.28;5071929;28;20200;-83
2022/09/13 06:34:50;;;;;;;0.80;0.80;;;;;;;20.31;63.05;98906.84;5071797;28;20200;-83
2022/09/13 06:37:17;;;;;;;0.90;0.80;;;;;;;20.38;65.97;98899.94;5076101;28;20212;-83
2022/09/13 06:39:46;;;;;;;0.80;0.80;;;;;;;20.77;67.36;98901.50;5075162;28;20218;-83
2022/09/13 06:42:12;;;;;;;0.60;0.60;;;;;;;20.83;62.67;98902.56;5073387;28;20205;-83
2022/09/13 06:44:39;;;;;;;0.90;0.90;;;;;;;20.87;59.53;98903.81;5072212;28;20233;-83
2022/09/13 06:47:06;;;;;;;0.80;0.80;;;;;;;20.87;59.47;98907.22;5072790;28;20194;-83
2022/09/13 06:49:33;;;;;;;0.60;0.60;;;;;;;21.06;60.71;98905.03;5070759;28;20206;-84
2022/09/13 06:52:00;;;;;;;0.87;0.70;;;;;;;21.18;57.90;98909.59;5070775;28;20834;-84
2022/09/13 06:54:27;;;;;;;0.80;0.80;;;;;;;21.34;60.34;98908.53;5070624;28;20198;-84
2022/09/13 06:56:55;;;;;;;0.87;0.73;;;;;;;21.34;59.21;98908.53;5070414;28;20232;-84
2022/09/13 06:59:22;;;;;;;0.73;0.70;;;;;;;21.63;60.38;98906.84;5070223;28;20698;-84
2022/09/13 07:01:49;;;;;;;0.80;0.80;;;;;;;21.68;55.66;98909.72;5069739;28;20863;-84
2022/09/13 07:04:18;;;;;;;0.90;0.90;;;;;;;21.82;57.23;98919.25;5070448;28;20208;-84
2022/09/13 07:06:46;;;;;;;1.10;0.70;;;;;;;22.08;58.60;98916.06;5070120;28;20231;-84
2022/09/13 07:09:16;;;;;;;1.13;0.83;;;;;;;22.34;58.85;98923.28;5069843;28;20205;-84
2022/09/13 07:11:43;;;;;;;1.30;1.00;;;;;;;22.57;55.24;98922.19;5071974;28;20763;-84
2022/09/13 07:14:13;;;;;;;0.80;0.80;;;;;;;22.75;55.31;98924.31;5069739;28;20210;-84
2022/09/13 07:16:40;;;;;;;1.45;1.02;;;;;;;22.88;51.95;98923.53;5069353;28;20238;-84
2022/09/13 07:19:12;;;;;;;1.10;1.00;;;;;;;22.87;50.41;98929.78;5069534;28;20209;-85
2022/09/13 07:21:39;;;;;;;0.63;0.63;;;;;;;22.93;52.35;98924.56;5069898;28;20257;-84
2022/09/13 07:24:06;;;;;;;1.35;0.93;;;;;;;22.96;50.56;98926.03;5072682;28;20590;-85
2022/09/13 07:26:33;;;;;;;0.75;0.75;;;;;;;23.01;49.85;98928.84;5074289;28;20281;-84
2022/09/13 07:29:01;;;;;;;1.02;0.90;;;;;;;22.77;49.87;98936.13;5073185;28;20692;-84
2022/09/13 07:31:31;;;;;;;0.70;0.70;;;;;;;23.02;50.00;98944.28;5073186;28;20233;-84
2022/09/13 07:34:00;;;;;;;0.70;0.70;;;;;;;23.32;51.36;98943.19;5073343;28;20210;-84
2022/09/13 07:36:30;;;;;;;1.00;0.90;;;;;;;23.57;50.06;98941.66;5073782;28;20226;-84
2022/09/13 07:38:58;;;;;;;0.77;0.77;;;;;;;23.78;49.89;98942.50;5073386;28;21016;-84
2022/09/13 07:41:26;;;;;;;1.27;0.98;;;;;;;23.84;51.53;98944.31;5073096;28;20309;-84
2022/09/13 07:43:53;;;;;;;1.00;0.77;;;;;;;23.85;48.39;98945.91;5073646;28;20203;-84
2022/09/13 07:46:22;;;;;;;1.25;0.95;;;;;;;24.36;51.46;98945.28;5073479;28;20234;-84
2022/09/13 07:48:53;;;;;;;0.88;0.85;;;;;;;24.63;48.72;98949.47;5072743;28;20198;-84
2022/09/13 07:51:21;;;;;;;1.65;1.20;;;;;;;24.96;48.59;98940.75;5072911;28;20236;-84
2022/09/13 07:53:50;;;;;;;0.95;0.85;;;;;;;24.93;45.83;98935.94;5072957;28;20203;-85
2022/09/13 07:56:18;;;;;;;0.73;0.70;;;;;;;24.60;46.42;98944.66;5072690;28;20238;-86
2022/09/13 07:58:47;;;;;;;1.33;1.10;;;;;;;24.75;45.39;98935.78;5072520;28;20211;-85
2022/09/13 08:01:16;;;;;;;0.82;0.63;;;;;;;24.67;46.35;98942.06;5073045;28;20233;-84
2022/09/13 08:03:44;;;;;;;0.73;0.73;;;;;;;24.82;43.81;98944.41;5072692;28;20614;-85
2022/09/13 08:06:12;;;;;;;0.63;0.63;;;;;;;25.04;45.62;98943.09;5073184;28;20716;-84
2022/09/13 08:08:39;;;;;;;1.08;0.90;;;;;;;25.08;45.86;98944.31;5073545;28;20203;-85
2022/09/13 08:11:07;;;;;;;1.42;0.93;;;;;;;25.15;41.99;98956.59;5072720;28;20219;-84
2022/09/13 08:13:34;;;;;;;0.70;0.70;;;;;;;24.69;42.88;98947.06;5072538;28;20195;-84
2022/09/13 08:16:03;;;;;;;0.98;0.88;;;;;;;25.18;45.24;98935.22;5072794;28;20241;-84
2022/09/13 08:18:30;;;;;;;0.60;0.60;;;;;;;25.58;41.96;98922.72;5072344;28;20194;-84
2022/09/13 08:20:58;;;;;;;0.98;0.82;;;;;;;25.53;44.86;98915.50;5071887;28;20309;-84
2022/09/13 08:23:27;;;;;;;0.90;0.90;;;;;;;25.58;43.82;98927.16;5072391;28;20750;-84
2022/09/13 08:25:54;;;;;;;0.75;0.73;;;;;;;25.67;42.94;98920.66;5072210;28;20246;-84
2022/09/13 08:28:22;;;;;;;1.50;0.85;;;;;;;25.61;43.01;98911.03;5072204;28;20202;-85
2022/09/13 08:30:49;;;;;;;1.10;1.00;;;;;;;25.78;42.36;98900.81;5072377;28;20233;-85
2022/09/13 08:33:16;;;;;;;0.70;0.60;;;;;;;25.88;42.24;98903.78;5072049;28;20207;-85
2022/09/13 08:35:50;;;;;;;0.75;0.70;;;;;;;26.13;41.28;98909.00;5071439;28;20256;-85
2022/09/13 08:38:17;;;;;;;1.15;0.85;;;;;;;26.41;41.33;98901.47;5071930;28;20206;-85
2022/09/13 08:40:49;;;;;;;0.80;0.80;;;;;;;26.61;40.68;98897.84;5071931;28;20223;-85
2022/09/13 08:43:25;;;;;;;0.82;0.75;;;;;;;26.92;41.56;98893.44;5072509;28;20640;-85
2022/09/13 08:45:57;;;;;;;1.13;0.82;;;;;;;26.81;39.28;98893.16;5071740;28;20238;-85
2022/09/13 08:48:33;;;;;;;0.75;0.75;;;;;;;26.68;40.64;98895.16;5072045;28;20203;-85
2022/09/13 08:51:08;;;;;;;1.35;1.13;;;;;;;26.77;38.95;98894.63;5071736;28;20268;-85
2022/09/13 08:53:44;;;;;;;1.05;0.98;;;;;;;26.59;37.29;98899.91;5072156;28;20667;-85
2022/09/13 08:56:19;;;;;;;0.73;0.73;;;;;;;26.67;38.90;98883.84;5072090;28;20230;-85
2022/09/13 08:58:59;;;;;;;1.00;0.90;;;;;;;26.70;39.72;98878.16;5071413;28;20208;-85
2022/09/13 09:01:51;;;;;;;0.77;0.70;;;;;;;26.84;38.19;98884.03;5071908;28;20621;-85
2022/09/13 09:04:34;;;;;;;0.70;0.70;;;;;;;27.06;38.53;98882.56;5071329;28;20255;-86
2022/09/13 09:07:08;;;;;;;0.60;0.60;;;;;;;26.96;38.50;98881.47;5071189;28;20241;-85
2022/09/13 09:09:41;;;;;;;0.65;0.65;;;;;;;26.71;38.22;98885.03;5071264;28;20214;-85
2022/09/13 09:12:17;;;;;;;0.95;0.70;;;;;;;26.46;34.95;98892.13;5071268;28;20353;-85
2022/09/13 09:14:53;;;;;;;0.70;0.70;;;;;;;26.88;37.77;98882.59;5071033;28;20198;-85
2022/09/13 09:17:25;;;;;;;0.85;0.80;;;;;;;26.96;35.92;98879.66;5070569;28;20202;-85
2022/09/13 09:19:57;;;;;;;0.60;0.60;;;;;;;27.17;36.99;98898.56;5070960;28;20190;-85
2022/09/13 09:22:30;;;;;;;0.68;0.68;;;;;;;27.02;39.17;98876.16;5071074;28;20191;-85
2022/09/13 09:24:58;;;;;;;0.75;0.75;;;;;;;26.81;36.78;98874.78;5071006;28;20206;-86
2022/09/13 09:27:26;;;;;;;0.68;0.68;;;;;;;26.82;37.26;98881.66;5070839;28;20209;-85
2022/09/13 09:29:57;;;;;;;1.23;0.80;;;;;;;27.12;35.21;98875.59;5070844;28;20574;-85
2022/09/13 09:32:46;;;;;;;0.50;0.50;;;;;;;27.27;36.50;98872.59;5070660;28;20708;-85
2022/09/13 09:35:23;;;;;;;1.27;0.68;;;;;;;27.28;36.84;98867.09;5070674;28;20221;-85
2022/09/13 09:38:14;;;;;;;0.80;0.80;;;;;;;27.16;34.58;98870.75;5070976;28;20602;-85
2022/09/13 09:40:41;;;;;;;0.85;0.85;;;;;;;26.60;34.15;98868.19;5070866;28;20272;-85
2022/09/13 09:43:17;;;;;;;0.82;0.82;;;;;;;26.90;34.46;98877.13;5070564;28;20585;-85
2022/09/13 09:45:46;;;;;;;0.60;0.60;;;;;;;26.97;33.17;98869.97;5070244;28;20237;-85
2022/09/13 09:48:16;;;;;;;1.00;0.85;;;;;;;26.94;34.20;98873.03;5070307;28;20267;-85
2022/09/13 09:50:49;;;;;;;0.50;0.50;;;;;;;26.96;35.68;98870.97;5070648;28;20214;-85
2022/09/13 09:53:23;;;;;;;0.70;0.70;;;;;;;27.26;35.83;98861.31;5070975;28;20199;-85
2022/09/13 09:55:55;;;;;;;0.82;0.80;;;;;;;27.59;36.78;98864.44;5070321;28;20226;-85
2022/09/13 09:58:37;;;;;;;0.90;0.90;;;;;;;27.73;33.87;98860.56;5070257;28;20685;-85
2022/09/13 10:01:05;;;;;;;0.73;0.73;;;;;;;28.02;33.63;98856.25;5070617;28;20305;-85
2022/09/13 10:03:34;;;;;;;0.77;0.77;;;;;;;27.59;34.00;98846.84;5070203;28;20207;-85
2022/09/13 10:06:07;;;;;;;0.90;0.77;;;;;;;27.69;37.04;98849.72;5069870;28;20231;-85
2022/09/13 10:08:36;;;;;;;0.85;0.85;;;;;;;27.79;35.62;98848.38;5070289;28;20745;-85
2022/09/13 10:11:04;;;;;;;0.80;0.80;;;;;;;27.86;34.40;98843.81;5070160;28;20281;-85
2022/09/13 10:13:32;;;;;;;0.70;0.70;;;;;;;27.07;34.43;98846.59;5070310;28;20209;-85
2022/09/13 10:16:02;;;;;;;1.15;1.00;;;;;;;27.28;35.62;98848.72;5069900;28;20268;-85
2022/09/13 10:18:30;;;;;;;0.73;0.73;;;;;;;27.60;35.57;98845.81;5070346;28;20215;-85
2022/09/13 10:21:02;;;;;;;1.10;1.00;;;;;;;27.74;36.47;98841.16;5069994;28;20245;-85
2022/09/13 10:23:30;;;;;;;0.68;0.68;;;;;;;27.84;34.58;98830.09;5069936;28;20203;-85
2022/09/13 10:26:10;;;;;;;0.80;0.80;;;;;;;27.57;35.13;98846.28;5069958;28;20238;-85
2022/09/13 10:28:46;;;;;;;0.80;0.80;;;;;;;27.50;36.42;98830.63;5070162;28;20214;-85
2022/09/13 10:31:16;;;;;;;0.95;0.80;;;;;;;27.88;36.27;98836.50;5070192;28;20308;-85
2022/09/13 10:33:52;;;;;;;0.50;0.50;;;;;;;27.91;33.30;98826.31;5070328;28;20225;-84
2022/09/13 10:36:22;;;;;;;0.80;0.80;;;;;;;27.92;33.79;98832.38;5069967;28;20226;-84
2022/09/13 10:38:57;;;;;;;0.68;0.68;;;;;;;28.01;33.15;98824.94;5069821;28;20199;-84
2022/09/13 10:41:27;;;;;;;0.80;0.80;;;;;;;27.94;34.42;98822.44;5070088;28;20218;-84
2022/09/13 10:43:59;;;;;;;0.60;0.60;;;;;;;27.92;35.10;98822.66;5069803;28;20201;-84
2022/09/13 10:46:30;;;;;;;0.70;0.70;;;;;;;27.92;33.45;98829.75;5069838;28;20708;-85
2022/09/13 10:48:57;;;;;;;0.77;0.77;;;;;;;28.26;34.72;98819.41;5069604;28;20493;-84
2022/09/13 10:51:36;;;;;;;1.40;1.20;;;;;;;28.43;34.59;98812.44;5069867;28;20301;-84
2022/09/13 10:54:18;;;;;;;0.68;0.50;;;;;;;28.30;32.74;98807.38;5069891;28;20203;-85
2022/09/13 10:56:45;;;;;;;1.05;0.70;;;;;;;27.79;32.92;98807.13;5069556;28;20218;-85
2022/09/13 10:59:22;;;;;;;0.80;0.80;;;;;;;27.53;34.62;98803.13;5073282;28;20198;-84
2022/09/13 11:02:16;;;;;;;0.70;0.70;;;;;;;27.52;34.97;98804.16;5073719;28;20230;-84
2022/09/13 11:05:05;;;;;;;1.25;0.98;;;;;;;27.73;34.65;98798.31;5073475;28;20658;-85
2022/09/13 11:07:48;;;;;;;0.90;0.90;;;;;;;28.20;35.83;98795.66;5073749;28;20238;-84
2022/09/13 11:10:23;;;;;;;0.88;0.88;;;;;;;28.00;33.03;98805.75;5073806;28;20579;-85
2022/09/13 11:12:57;;;;;;;0.82;0.68;;;;;;;28.24;36.58;98797.81;5073588;28;20692;-84
2022/09/13 11:15:40;;;;;;;0.88;0.82;;;;;;;28.47;35.24;98792.50;5073559;28;20218;-84
2022/09/13 11:18:50;;;;;;;0.88;0.80;;;;;;;28.12;32.52;98790.75;5073175;28;20195;-85
2022/09/13 11:21:28;;;;;;;0.80;0.80;;;;;;;28.05;34.13;98794.56;5072948;28;20241;-84
2022/09/13 11:24:13;;;;;;;0.80;0.80;;;;;;;28.01;32.29;98788.94;5073289;28;20207;-84
2022/09/13 11:26:52;;;;;;;0.50;0.50;;;;;;;27.55;33.09;98790.56;5073402;28;20242;-84
2022/09/13 11:29:42;;;;;;;0.80;0.80;;;;;;;27.36;33.27;98781.19;5073136;28;20207;-84
2022/09/13 11:32:26;;;;;;;0.90;0.77;;;;;;;27.00;33.71;98777.69;5070543;28;20278;-85
2022/09/13 11:35:12;;;;;;;1.27;0.82;;;;;;;27.23;34.82;98787.47;5073407;28;20199;-84
2022/09/13 11:37:52;;;;;;;1.10;1.00;;;;;;;27.09;35.45;98789.47;5072917;28;20221;-84
2022/09/13 11:40:32;;;;;;;0.75;0.65;;;;;;;26.59;34.37;98789.75;5073232;28;20226;-84
2022/09/13 11:43:13;;;;;;;0.75;0.70;;;;;;;26.26;35.67;98788.31;5073088;28;20214;-84
2022/09/13 11:45:48;;;;;;;0.65;0.65;;;;;;;25.84;38.19;98785.56;5072934;28;20697;-84
2022/09/13 11:48:46;;;;;;;0.63;0.63;;;;;;;25.86;37.33;98782.69;5072798;28;20213;-84
2022/09/13 11:51:24;;;;;;;0.40;0.40;;;;;;;26.01;36.31;98777.13;5072634;28;20214;-84
2022/09/13 11:54:13;;;;;;;0.73;0.70;;;;;;;26.54;38.89;98779.13;5073115;28;20202;-84
2022/09/13 11:56:44;;;;;;;0.90;0.82;;;;;;;26.50;36.50;98763.06;5072775;28;20250;-84